Yamato — JD2252 — position and weather

sailwx.info

Track history (hours):
 
Tides and Currents Weather Stations Pressure Air Temp Water Temp Dewpoint Dewpoint Depression Visibility Wind Speed Wind Dir Waves Ship Positions

Yamato

Last reported at 2014-Oct-20 09:33 UTC. Time now 2014-Oct-20 21:12 UTC.
Position N 35°27' E 139°42'.

Length 40 m; draft 3.6 m.

Type: Tug. MMSI: 431101141.

Date/timePositionNaut miles runAvg speedWind from/ knotsBaromVisibWave heightAir tempDewpointWater temp
2014-Oct-20 09:33N 35°27' E 139°42'1 0.6
2014-Oct-20 08:33N 35°28' E 139°42'0 0.2
2014-Oct-20 07:33N 35°27' E 139°42'4 4.2
2014-Oct-20 06:31N 35°29' E 139°47'0 0.3
2014-Oct-20 05:32N 35°30' E 139°47'8 3.5
2014-Oct-20 03:14N 35°29' E 139°57'0 0.1
2014-Oct-19 23:28N 35°30' E 139°58'1011.2
2014-Oct-19 22:34N 35°27' E 139°46'5 5.0
2014-Oct-19 21:34N 35°27' E 139°40'0 0.0
2014-Oct-19 20:33N 35°27' E 139°40'0 0.0
2014-Oct-18 08:23N 35°27' E 139°40'1 1.7
2014-Oct-18 07:34N 35°27' E 139°41'1 1.3
2014-Oct-18 06:33N 35°27' E 139°40'0 0.0
2014-Oct-18 05:33N 35°27' E 139°40'0 0.0
2014-Oct-18 04:33N 35°27' E 139°40'0 0.0
2014-Oct-18 03:34N 35°27' E 139°40'7 6.7
2014-Oct-18 02:33N 35°31' E 139°46'4 4.2
2014-Oct-18 01:33N 35°29' E 139°42'2 1.7
2014-Oct-18 00:33N 35°27' E 139°41'1 1.5
2014-Oct-17 23:34N 35°27' E 139°39'0 0.0
2014-Oct-17 22:33N 35°27' E 139°39'1 0.9
2014-Oct-17 21:34N 35°27' E 139°41'1 0.8
2014-Oct-17 20:33N 35°27' E 139°40'0 0.0
2014-Oct-17 12:22N 35°27' E 139°40'1 1.8
2014-Oct-17 11:34N 35°28' E 139°39'5 4.7
2014-Oct-17 10:33N 35°26' E 139°44'2 1.9
2014-Oct-17 09:34N 35°26' E 139°42'2 1.7
2014-Oct-17 08:34N 35°27' E 139°40'1 0.9
2014-Oct-17 07:33N 35°28' E 139°41'2 1.7
2014-Oct-17 06:34N 35°27' E 139°39'4 3.6
2014-Oct-17 05:34N 35°29' E 139°43'3 2.6
2014-Oct-17 04:34N 35°27' E 139°43'3 2.7
2014-Oct-17 03:33N 35°27' E 139°40'0 0.0
2014-Oct-17 02:33N 35°27' E 139°40'0 0.0
2014-Oct-17 01:34N 35°27' E 139°40'0 0.0
2014-Oct-17 00:34N 35°27' E 139°40'0 0.0
2014-Oct-16 23:34N 35°27' E 139°40'0 0.0
2014-Oct-16 22:34N 35°27' E 139°40'2 0.1
2014-Oct-15 18:24N 35°27' E 139°42'1 1.0
2014-Oct-15 17:33N 35°28' E 139°42'0 0.3
2014-Oct-15 16:34N 35°28' E 139°42'2 2.3
2014-Oct-15 15:33N 35°29' E 139°44'0 0.0
2014-Oct-15 14:19N 35°29' E 139°44'2 2.3
2014-Oct-15 13:34N 35°27' E 139°45'1 1.4
2014-Oct-15 12:33N 35°28' E 139°44'3 3.3
2014-Oct-15 11:34N 35°26' E 139°40'1 1.5
2014-Oct-15 10:34N 35°27' E 139°42'0 0.0
2014-Oct-15 09:34N 35°27' E 139°42'2 1.5
2014-Oct-15 08:34N 35°28' E 139°41'2 1.6
2014-Oct-15 07:33N 35°27' E 139°40'0 0.0
2014-Oct-15 06:34N 35°27' E 139°40'0 0.0
2014-Oct-15 05:33N 35°27' E 139°40'0 0.0
2014-Oct-15 04:34N 35°27' E 139°40'0 0.0
2014-Oct-15 03:34N 35°27' E 139°40'0 0.0
2014-Oct-15 02:34N 35°27' E 139°40'0 0.0
2014-Oct-15 01:34N 35°27' E 139°40'0 0.0
2014-Oct-15 00:33N 35°27' E 139°40'0 0.0
2014-Oct-14 23:33N 35°27' E 139°40'0 0.0
2014-Oct-14 22:34N 35°27' E 139°40'0 0.0
2014-Oct-14 06:33N 35°27' E 139°39'0 0.1
2014-Oct-14 05:33N 35°27' E 139°40'0 0.0
2014-Oct-14 04:33N 35°27' E 139°40'0 0.2
2014-Oct-14 03:33N 35°27' E 139°39'0 0.0
2014-Oct-14 02:33N 35°27' E 139°39'0 0.0
2014-Oct-14 01:33N 35°27' E 139°39'0 0.0
2014-Oct-14 00:33N 35°27' E 139°39'0 0.0
2014-Oct-13 23:33N 35°27' E 139°39'0 0.0
2014-Oct-13 22:33N 35°27' E 139°39'0 0.0
2014-Oct-13 21:17N 35°27' E 139°39'0 0.0
2014-Oct-13 20:31N 35°27' E 139°39'0 0.0
2014-Oct-13 19:28N 35°27' E 139°39'0 0.0
2014-Oct-13 18:33N 35°27' E 139°39'0 0.0
2014-Oct-13 17:26N 35°27' E 139°39'0 0.0
2014-Oct-13 16:33N 35°27' E 139°39'0 0.0
2014-Oct-13 15:33N 35°27' E 139°39'0 0.0
2014-Oct-13 14:28N 35°27' E 139°39'0 0.0
2014-Oct-13 13:33N 35°27' E 139°39'0 0.0
2014-Oct-12 20:33N 35°27' E 139°40'0 0.0
2014-Oct-12 19:33N 35°27' E 139°40'0 0.0
2014-Oct-12 18:33N 35°27' E 139°40'0 0.0
2014-Oct-12 17:33N 35°27' E 139°40'0 0.0
2014-Oct-12 16:33N 35°27' E 139°40'0 0.0
2014-Oct-12 15:33N 35°27' E 139°40'0 0.0
2014-Oct-12 14:33N 35°27' E 139°40'0 0.0
2014-Oct-12 13:33N 35°27' E 139°40'0 0.0
2014-Oct-12 12:33N 35°27' E 139°40'0 0.0
2014-Oct-12 11:33N 35°27' E 139°40'0 0.0
2014-Oct-12 10:33N 35°27' E 139°40'0 0.0
2014-Oct-12 09:33N 35°27' E 139°40'0 0.0
2014-Oct-12 08:33N 35°27' E 139°40'0 0.0
2014-Oct-12 07:33N 35°27' E 139°40'0 0.0
2014-Oct-12 06:33N 35°27' E 139°40'0 0.0
2014-Oct-12 05:33N 35°27' E 139°40'0 0.0
2014-Oct-12 04:33N 35°27' E 139°40'0 0.0
2014-Oct-12 03:33N 35°27' E 139°40'0 0.0
2014-Oct-12 02:33N 35°27' E 139°40'0 0.0
2014-Oct-12 01:33N 35°27' E 139°40'0 0.0
2014-Oct-12 00:33N 35°27' E 139°40'0 0.0
2014-Oct-11 23:33N 35°27' E 139°40'0 0.0
2014-Oct-11 22:33N 35°27' E 139°40'0 0.0
2014-Oct-11 21:33N 35°27' E 139°40'0 0.0
2014-Oct-11 20:33N 35°27' E 139°40'0 0.0
2014-Oct-11 19:33N 35°27' E 139°40'0 0.0
2014-Oct-11 18:33N 35°27' E 139°40'0 0.0
2014-Oct-11 17:33N 35°27' E 139°40'0 0.0
2014-Oct-11 16:33N 35°27' E 139°40'0 0.0
2014-Oct-11 15:33N 35°27' E 139°40'0 0.0
2014-Oct-11 14:33N 35°27' E 139°40'0 0.0
2014-Oct-11 13:33N 35°27' E 139°40'0 0.0
2014-Oct-11 12:33N 35°27' E 139°40'0 0.0
2014-Oct-11 11:33N 35°27' E 139°40'0 0.0
2014-Oct-11 10:33N 35°27' E 139°40'0 0.0
2014-Oct-11 09:33N 35°27' E 139°40'0 0.0
2014-Oct-11 08:34N 35°27' E 139°40'0 0.0
2014-Oct-11 07:33N 35°27' E 139°40'0 0.0
2014-Oct-11 06:33N 35°27' E 139°40'0 0.0
2014-Oct-11 05:34N 35°27' E 139°40'0 0.0
2014-Oct-11 04:33N 35°27' E 139°40'0 0.0
2014-Oct-11 03:33N 35°27' E 139°40'0 0.0
2014-Oct-11 02:33N 35°27' E 139°40'0 0.0
2014-Oct-11 01:33N 35°27' E 139°40'0 0.0
2014-Oct-11 00:33N 35°27' E 139°40'1 0.8
2014-Oct-10 23:33N 35°27' E 139°41'2 2.2
2014-Oct-10 22:34N 35°26' E 139°43'1 0.9
2014-Oct-10 21:33N 35°26' E 139°42'2 2.4
2014-Oct-10 20:33N 35°28' E 139°43'3 2.7
2014-Oct-10 19:33N 35°27' E 139°39'0 0.0
2014-Oct-10 18:33N 35°27' E 139°39'0 0.0
2014-Oct-10 17:33N 35°27' E 139°39'0 0.0
2014-Oct-10 16:34N 35°27' E 139°39'0 0.0
2014-Oct-10 15:33N 35°27' E 139°39'0 0.1
2014-Oct-10 14:33N 35°27' E 139°40'3 3.0
2014-Oct-10 13:33N 35°24' E 139°41'1 0.7
2014-Oct-10 12:33N 35°24' E 139°40'1 0.9
2014-Oct-10 11:33N 35°23' E 139°41'1 1.1
2014-Oct-10 10:34N 35°24' E 139°41'3 2.9
2014-Oct-10 09:33N 35°27' E 139°41'  
Track history (hours):
 
Tides and Currents Weather Stations Pressure Air Temp Water Temp Dewpoint Dewpoint Depression Visibility Wind Speed Wind Dir Waves Ship Positions

Yamato

Last reported at 2014-Oct-20 09:33 UTC. Time now 2014-Oct-20 21:12 UTC.
Position N 35°27' E 139°42'.

Length 40 m; draft 3.6 m.

Type: Tug. MMSI: 431101141.

Date/timePositionNaut miles runAvg speedWind from/ knotsBaromVisibWave heightAir tempDewpointWater temp
2014-Oct-20 09:33N 35°27' E 139°42'1 0.6
2014-Oct-20 08:33N 35°28' E 139°42'0 0.2
2014-Oct-20 07:33N 35°27' E 139°42'4 4.2
2014-Oct-20 06:31N 35°29' E 139°47'0 0.3
2014-Oct-20 05:32N 35°30' E 139°47'8 3.5
2014-Oct-20 03:14N 35°29' E 139°57'0 0.1
2014-Oct-19 23:28N 35°30' E 139°58'1011.2
2014-Oct-19 22:34N 35°27' E 139°46'5 5.0
2014-Oct-19 21:34N 35°27' E 139°40'0 0.0
2014-Oct-19 20:33N 35°27' E 139°40'0 0.0
2014-Oct-18 08:23N 35°27' E 139°40'1 1.7
2014-Oct-18 07:34N 35°27' E 139°41'1 1.3
2014-Oct-18 06:33N 35°27' E 139°40'0 0.0
2014-Oct-18 05:33N 35°27' E 139°40'0 0.0
2014-Oct-18 04:33N 35°27' E 139°40'0 0.0
2014-Oct-18 03:34N 35°27' E 139°40'7 6.7
2014-Oct-18 02:33N 35°31' E 139°46'4 4.2
2014-Oct-18 01:33N 35°29' E 139°42'2 1.7
2014-Oct-18 00:33N 35°27' E 139°41'1 1.5
2014-Oct-17 23:34N 35°27' E 139°39'0 0.0
2014-Oct-17 22:33N 35°27' E 139°39'1 0.9
2014-Oct-17 21:34N 35°27' E 139°41'1 0.8
2014-Oct-17 20:33N 35°27' E 139°40'0 0.0
2014-Oct-17 12:22N 35°27' E 139°40'1 1.8
2014-Oct-17 11:34N 35°28' E 139°39'5 4.7
2014-Oct-17 10:33N 35°26' E 139°44'2 1.9
2014-Oct-17 09:34N 35°26' E 139°42'2 1.7
2014-Oct-17 08:34N 35°27' E 139°40'1 0.9
2014-Oct-17 07:33N 35°28' E 139°41'2 1.7
2014-Oct-17 06:34N 35°27' E 139°39'4 3.6
2014-Oct-17 05:34N 35°29' E 139°43'3 2.6
2014-Oct-17 04:34N 35°27' E 139°43'3 2.7
2014-Oct-17 03:33N 35°27' E 139°40'0 0.0
2014-Oct-17 02:33N 35°27' E 139°40'0 0.0
2014-Oct-17 01:34N 35°27' E 139°40'0 0.0
2014-Oct-17 00:34N 35°27' E 139°40'0 0.0
2014-Oct-16 23:34N 35°27' E 139°40'0 0.0
2014-Oct-16 22:34N 35°27' E 139°40'2 0.1
2014-Oct-15 18:24N 35°27' E 139°42'1 1.0
2014-Oct-15 17:33N 35°28' E 139°42'0 0.3
2014-Oct-15 16:34N 35°28' E 139°42'2 2.3
2014-Oct-15 15:33N 35°29' E 139°44'0 0.0
2014-Oct-15 14:19N 35°29' E 139°44'2 2.3
2014-Oct-15 13:34N 35°27' E 139°45'1 1.4
2014-Oct-15 12:33N 35°28' E 139°44'3 3.3
2014-Oct-15 11:34N 35°26' E 139°40'1 1.5
2014-Oct-15 10:34N 35°27' E 139°42'0 0.0
2014-Oct-15 09:34N 35°27' E 139°42'2 1.5
2014-Oct-15 08:34N 35°28' E 139°41'2 1.6
2014-Oct-15 07:33N 35°27' E 139°40'0 0.0
2014-Oct-15 06:34N 35°27' E 139°40'0 0.0
2014-Oct-15 05:33N 35°27' E 139°40'0 0.0
2014-Oct-15 04:34N 35°27' E 139°40'0 0.0
2014-Oct-15 03:34N 35°27' E 139°40'0 0.0
2014-Oct-15 02:34N 35°27' E 139°40'0 0.0
2014-Oct-15 01:34N 35°27' E 139°40'0 0.0
2014-Oct-15 00:33N 35°27' E 139°40'0 0.0
2014-Oct-14 23:33N 35°27' E 139°40'0 0.0
2014-Oct-14 22:34N 35°27' E 139°40'0 0.0
2014-Oct-14 06:33N 35°27' E 139°39'0 0.1
2014-Oct-14 05:33N 35°27' E 139°40'0 0.0
2014-Oct-14 04:33N 35°27' E 139°40'0 0.2
2014-Oct-14 03:33N 35°27' E 139°39'0 0.0
2014-Oct-14 02:33N 35°27' E 139°39'0 0.0
2014-Oct-14 01:33N 35°27' E 139°39'0 0.0
2014-Oct-14 00:33N 35°27' E 139°39'0 0.0
2014-Oct-13 23:33N 35°27' E 139°39'0 0.0
2014-Oct-13 22:33N 35°27' E 139°39'0 0.0
2014-Oct-13 21:17N 35°27' E 139°39'0 0.0
2014-Oct-13 20:31N 35°27' E 139°39'0 0.0
2014-Oct-13 19:28N 35°27' E 139°39'0 0.0
2014-Oct-13 18:33N 35°27' E 139°39'0 0.0
2014-Oct-13 17:26N 35°27' E 139°39'0 0.0
2014-Oct-13 16:33N 35°27' E 139°39'0 0.0
2014-Oct-13 15:33N 35°27' E 139°39'0 0.0
2014-Oct-13 14:28N 35°27' E 139°39'0 0.0
2014-Oct-13 13:33N 35°27' E 139°39'0 0.0
2014-Oct-12 20:33N 35°27' E 139°40'0 0.0
2014-Oct-12 19:33N 35°27' E 139°40'0 0.0
2014-Oct-12 18:33N 35°27' E 139°40'0 0.0
2014-Oct-12 17:33N 35°27' E 139°40'0 0.0
2014-Oct-12 16:33N 35°27' E 139°40'0 0.0
2014-Oct-12 15:33N 35°27' E 139°40'0 0.0
2014-Oct-12 14:33N 35°27' E 139°40'0 0.0
2014-Oct-12 13:33N 35°27' E 139°40'0 0.0
2014-Oct-12 12:33N 35°27' E 139°40'0 0.0
2014-Oct-12 11:33N 35°27' E 139°40'0 0.0
2014-Oct-12 10:33N 35°27' E 139°40'0 0.0
2014-Oct-12 09:33N 35°27' E 139°40'0 0.0
2014-Oct-12 08:33N 35°27' E 139°40'0 0.0
2014-Oct-12 07:33N 35°27' E 139°40'0 0.0
2014-Oct-12 06:33N 35°27' E 139°40'0 0.0
2014-Oct-12 05:33N 35°27' E 139°40'0 0.0
2014-Oct-12 04:33N 35°27' E 139°40'0 0.0
2014-Oct-12 03:33N 35°27' E 139°40'0 0.0
2014-Oct-12 02:33N 35°27' E 139°40'0 0.0
2014-Oct-12 01:33N 35°27' E 139°40'0 0.0
2014-Oct-12 00:33N 35°27' E 139°40'0 0.0
2014-Oct-11 23:33N 35°27' E 139°40'0 0.0
2014-Oct-11 22:33N 35°27' E 139°40'0 0.0
2014-Oct-11 21:33N 35°27' E 139°40'0 0.0
2014-Oct-11 20:33N 35°27' E 139°40'0 0.0
2014-Oct-11 19:33N 35°27' E 139°40'0 0.0
2014-Oct-11 18:33N 35°27' E 139°40'0 0.0
2014-Oct-11 17:33N 35°27' E 139°40'0 0.0
2014-Oct-11 16:33N 35°27' E 139°40'0 0.0
2014-Oct-11 15:33N 35°27' E 139°40'0 0.0
2014-Oct-11 14:33N 35°27' E 139°40'0 0.0
2014-Oct-11 13:33N 35°27' E 139°40'0 0.0
2014-Oct-11 12:33N 35°27' E 139°40'0 0.0
2014-Oct-11 11:33N 35°27' E 139°40'0 0.0
2014-Oct-11 10:33N 35°27' E 139°40'0 0.0
2014-Oct-11 09:33N 35°27' E 139°40'0 0.0
2014-Oct-11 08:34N 35°27' E 139°40'0 0.0
2014-Oct-11 07:33N 35°27' E 139°40'0 0.0
2014-Oct-11 06:33N 35°27' E 139°40'0 0.0
2014-Oct-11 05:34N 35°27' E 139°40'0 0.0
2014-Oct-11 04:33N 35°27' E 139°40'0 0.0
2014-Oct-11 03:33N 35°27' E 139°40'0 0.0
2014-Oct-11 02:33N 35°27' E 139°40'0 0.0
2014-Oct-11 01:33N 35°27' E 139°40'0 0.0
2014-Oct-11 00:33N 35°27' E 139°40'1 0.8
2014-Oct-10 23:33N 35°27' E 139°41'2 2.2
2014-Oct-10 22:34N 35°26' E 139°43'1 0.9
2014-Oct-10 21:33N 35°26' E 139°42'2 2.4
2014-Oct-10 20:33N 35°28' E 139°43'3 2.7
2014-Oct-10 19:33N 35°27' E 139°39'0 0.0
2014-Oct-10 18:33N 35°27' E 139°39'0 0.0
2014-Oct-10 17:33N 35°27' E 139°39'0 0.0
2014-Oct-10 16:34N 35°27' E 139°39'0 0.0
2014-Oct-10 15:33N 35°27' E 139°39'0 0.1
2014-Oct-10 14:33N 35°27' E 139°40'3 3.0
2014-Oct-10 13:33N 35°24' E 139°41'1 0.7
2014-Oct-10 12:33N 35°24' E 139°40'1 0.9
2014-Oct-10 11:33N 35°23' E 139°41'1 1.1
2014-Oct-10 10:34N 35°24' E 139°41'3 2.9
2014-Oct-10 09:33N 35°27' E 139°41'  

Dump ship's entire track history